Check out our new BloomSky Weather System.

Active alerts


No alerts


Thunder radar  blitzortung!


Rain radar more information rain snow radar


Visit our other weather sites:

Template documentation
and downloads

And another site



Weather Underground History page Text

Daily Summary for July 18, 2017 Units:  English    Metric   Both
« Previous Day
Next Day »
Daily Weekly Monthly Yearly Custom
  High: Low: Average:
Temperature: 91.2 °F 77.2 °F 84.3 °F
Dew Point: 80.6 °F 75.7 °F 77.7 °F
Humidity: 97 % 63 % 81 %
Wind Speed: 11.0 mph 0.0 mph 1.6 mph
Wind Gust: 14.0 mph - -
Wind:- - SSE
Pressure: 30.05 in 29.94 in -
Precipitation: 0.00 in    
Historical Graphs
 
 
Tabular Data for July 18, 2017
Time Temperature Dew Point Pressure Wind Wind Speed Wind Gust Humidity Rainfall Rate (Hourly)
00:01 81.7 °F 76.6 °F 29.95 in SE 2.0 mph 2.0 mph 85 % 0.00 in
00:06 81.9 °F 76.8 °F 29.95 in SSE 1.0 mph 2.0 mph 85 % 0.00 in
00:11 81.7 °F 76.6 °F 29.95 in SSW 1.0 mph 2.0 mph 85 % 0.00 in
00:16 81.7 °F 76.6 °F 29.95 in SSW 1.0 mph 3.0 mph 85 % 0.00 in
00:21 81.5 °F 76.5 °F 29.95 in SSW 2.0 mph 3.0 mph 85 % 0.00 in
00:26 81.3 °F 76.6 °F 29.95 in South 1.0 mph 3.0 mph 86 % 0.00 in
00:31 81.1 °F 76.5 °F 29.94 in SSE 1.0 mph 3.0 mph 86 % 0.00 in
00:36 81.3 °F 76.6 °F 29.94 in SSE 2.0 mph 3.0 mph 86 % 0.00 in
00:41 81.3 °F 76.6 °F 29.94 in Calm   3.0 mph 86 % 0.00 in
00:46 81.3 °F 76.6 °F 29.94 in Calm   3.0 mph 86 % 0.00 in
00:51 81.3 °F 77.0 °F 29.94 in Calm   3.0 mph 87 % 0.00 in
00:56 81.1 °F 76.8 °F 29.94 in Calm   2.0 mph 87 % 0.00 in
01:01 81.1 °F 76.8 °F 29.95 in ESE 2.0 mph 2.0 mph 87 % 0.00 in
01:07 81.1 °F 76.8 °F 29.95 in Calm   3.0 mph 87 % 0.00 in
01:11 81.1 °F 76.8 °F 29.95 in Calm   3.0 mph 87 % 0.00 in
01:17 81.0 °F 77.0 °F 29.95 in Calm   3.0 mph 88 % 0.00 in
01:22 81.0 °F 77.0 °F 29.95 in Calm   2.0 mph 88 % 0.00 in
01:27 81.0 °F 77.0 °F 29.95 in SSE 1.0 mph 2.0 mph 88 % 0.00 in
01:32 81.0 °F 77.0 °F 29.95 in South 2.0 mph 2.0 mph 88 % 0.00 in
01:37 80.8 °F 76.8 °F 29.95 in SSE 1.0 mph 2.0 mph 88 % 0.00 in
01:42 80.8 °F 77.2 °F 29.95 in Calm   2.0 mph 89 % 0.00 in
01:47 80.8 °F 77.2 °F 29.95 in SSE 1.0 mph 2.0 mph 89 % 0.00 in
01:52 80.6 °F 77.0 °F 29.95 in SSE 1.0 mph 2.0 mph 89 % 0.00 in
01:57 80.4 °F 76.8 °F 29.95 in Calm   2.0 mph 89 % 0.00 in
02:02 80.4 °F 76.8 °F 29.95 in SSE 1.0 mph 2.0 mph 89 % 0.00 in
02:07 80.2 °F 76.6 °F 29.95 in Calm   2.0 mph 89 % 0.00 in
02:12 80.2 °F 77.0 °F 29.95 in Calm   2.0 mph 90 % 0.00 in
02:17 80.1 °F 76.8 °F 29.95 in Calm   2.0 mph 90 % 0.00 in
02:22 80.1 °F 76.8 °F 29.95 in Calm     90 % 0.00 in
02:27 79.9 °F 76.6 °F 29.94 in Calm     90 % 0.00 in
02:32 79.9 °F 76.6 °F 29.94 in Calm     90 % 0.00 in
02:37 79.7 °F 76.5 °F 29.94 in Calm     90 % 0.00 in
02:42 79.5 °F 76.6 °F 29.94 in Calm     91 % 0.00 in
02:47 79.5 °F 76.6 °F 29.95 in Calm     91 % 0.00 in
02:52 79.5 °F 76.6 °F 29.95 in Calm     91 % 0.00 in
02:57 79.3 °F 76.8 °F 29.95 in Calm     92 % 0.00 in
03:02 79.3 °F 76.8 °F 29.96 in Calm     92 % 0.00 in
03:07 79.3 °F 76.8 °F 29.96 in Calm     92 % 0.00 in
03:12 79.2 °F 76.6 °F 29.96 in Calm     92 % 0.00 in
03:17 79.2 °F 76.6 °F 29.96 in Calm     92 % 0.00 in
03:22 79.0 °F 76.5 °F 29.96 in Calm     92 % 0.00 in
03:27 78.8 °F 76.3 °F 29.96 in Calm     92 % 0.00 in
03:32 79.0 °F 76.8 °F 29.96 in Calm     93 % 0.00 in
03:37 78.8 °F 76.6 °F 29.96 in Calm     93 % 0.00 in
03:42 78.6 °F 76.5 °F 29.96 in Calm     93 % 0.00 in
03:47 78.6 °F 76.5 °F 29.96 in Calm     93 % 0.00 in
03:52 78.4 °F 76.3 °F 29.95 in Calm     93 % 0.00 in
03:57 78.4 °F 76.3 °F 29.95 in Calm     93 % 0.00 in
04:02 78.3 °F 76.1 °F 29.96 in Calm     93 % 0.00 in
04:07 78.1 °F 76.3 °F 29.96 in Calm     94 % 0.00 in
04:12 78.3 °F 76.5 °F 29.96 in Calm     94 % 0.00 in
04:17 78.1 °F 76.3 °F 29.96 in Calm     94 % 0.00 in
04:22 78.1 °F 76.3 °F 29.96 in Calm     94 % 0.00 in
04:27 77.9 °F 76.1 °F 29.96 in Calm     94 % 0.00 in
04:32 77.9 °F 76.1 °F 29.96 in Calm     94 % 0.00 in
04:37 77.9 °F 76.1 °F 29.97 in Calm     94 % 0.00 in
04:42 77.9 °F 76.3 °F 29.97 in Calm     95 % 0.00 in
04:47 77.9 °F 76.3 °F 29.97 in Calm     95 % 0.00 in
04:52 77.7 °F 76.1 °F 29.97 in Calm     95 % 0.00 in
04:57 77.9 °F 76.3 °F 29.97 in Calm     95 % 0.00 in
05:02 77.9 °F 76.3 °F 29.97 in Calm     95 % 0.00 in
05:07 77.7 °F 76.1 °F 29.97 in Calm     95 % 0.00 in
05:12 77.7 °F 76.1 °F 29.97 in Calm     95 % 0.00 in
05:17 77.7 °F 76.1 °F 29.97 in Calm     95 % 0.00 in
05:22 77.7 °F 76.1 °F 29.97 in Calm     95 % 0.00 in
05:27 77.5 °F 75.9 °F 29.97 in Calm     95 % 0.00 in
05:32 77.5 °F 75.9 °F 29.97 in Calm     95 % 0.00 in
05:37 77.5 °F 75.9 °F 29.97 in Calm     95 % 0.00 in
05:42 77.5 °F 76.3 °F 29.98 in Calm     96 % 0.00 in
05:43 77.5 °F 76.3 °F 29.98 in Calm     96 % 0.00 in
05:48 77.5 °F 76.3 °F 29.98 in Calm     96 % 0.00 in
05:53 77.5 °F 76.3 °F 29.98 in Calm     96 % 0.00 in
05:58 77.5 °F 76.3 °F 29.98 in Calm     96 % 0.00 in
06:03 77.5 °F 76.3 °F 29.99 in Calm     96 % 0.00 in
06:08 77.5 °F 76.3 °F 29.99 in Calm     96 % 0.00 in
06:13 77.5 °F 76.3 °F 29.99 in Calm     96 % 0.00 in
06:18 77.5 °F 76.3 °F 29.99 in Calm     96 % 0.00 in
06:23 77.4 °F 76.1 °F 29.98 in Calm     96 % 0.00 in
06:28 77.2 °F 75.9 °F 29.98 in Calm     96 % 0.00 in
06:33 77.2 °F 75.9 °F 29.98 in Calm     96 % 0.00 in
06:38 77.2 °F 75.9 °F 29.98 in Calm     96 % 0.00 in
06:40 77.2 °F 75.9 °F 29.98 in Calm     96 % 0.00 in
06:45 77.2 °F 75.9 °F 29.98 in Calm     96 % 0.00 in
06:50 77.4 °F 76.5 °F 29.98 in Calm     97 % 0.00 in
06:51 77.4 °F 76.5 °F 29.98 in Calm     97 % 0.00 in
06:56 77.5 °F 76.6 °F 29.98 in Calm     97 % 0.00 in
07:01 77.7 °F 76.8 °F 29.99 in Calm     97 % 0.00 in
07:06 77.7 °F 76.8 °F 29.99 in Calm     97 % 0.00 in
07:12 78.1 °F 77.2 °F 29.99 in Calm     97 % 0.00 in
07:16 78.1 °F 76.8 °F 29.99 in Calm     96 % 0.00 in
07:22 78.4 °F 77.2 °F 29.99 in SSE 1.0 mph   96 % 0.00 in
07:27 78.4 °F 77.2 °F 30.00 in Calm   1.0 mph 96 % 0.00 in
07:32 79.0 °F 77.7 °F 30.00 in Calm   1.0 mph 96 % 0.00 in
07:37 79.7 °F 78.1 °F 30.00 in Calm   1.0 mph 95 % 0.00 in
07:42 80.8 °F 79.2 °F 30.00 in Calm     95 % 0.00 in
07:47 81.9 °F 80.2 °F 30.00 in Calm     95 % 0.00 in
07:52 82.2 °F 79.7 °F 30.00 in Calm     92 % 0.00 in
07:54 82.2 °F 79.0 °F 30.00 in SSE 1.0 mph   90 % 0.00 in
07:59 82.0 °F 78.4 °F 29.99 in NW 1.0 mph 1.0 mph 89 % 0.00 in
08:04 81.9 °F 78.6 °F 30.00 in Calm   2.0 mph 90 % 0.00 in
08:09 82.0 °F 78.1 °F 30.00 in NW 1.0 mph 2.0 mph 88 % 0.00 in
08:14 82.8 °F 79.2 °F 30.00 in Calm   3.0 mph 89 % 0.00 in
08:19 83.3 °F 79.0 °F 30.00 in Calm   3.0 mph 87 % 0.00 in
08:24 84.2 °F 79.5 °F 30.00 in Calm   3.0 mph 86 % 0.00 in
08:29 84.6 °F 79.5 °F 30.01 in Calm   2.0 mph 85 % 0.00 in
08:34 85.6 °F 80.6 °F 30.01 in NNE 1.0 mph 2.0 mph 85 % 0.00 in
08:39 86.4 °F 79.9 °F 30.02 in Calm   2.0 mph 81 % 0.00 in
08:44 87.4 °F 80.4 °F 30.02 in SSW 1.0 mph 2.0 mph 80 % 0.00 in
08:49 88.0 °F 80.2 °F 30.03 in Calm   2.0 mph 78 % 0.00 in
08:54 88.2 °F 79.2 °F 30.03 in Calm   2.0 mph 75 % 0.00 in
08:59 87.4 °F 79.3 °F 30.03 in NW 2.0 mph 3.0 mph 77 % 0.00 in
09:04 87.6 °F 80.2 °F 30.03 in Calm   4.0 mph 79 % 0.00 in
09:09 88.5 °F 79.5 °F 30.04 in ESE 2.0 mph 4.0 mph 75 % 0.00 in
09:14 89.2 °F 80.2 °F 30.04 in Calm   4.0 mph 75 % 0.00 in
09:19 89.6 °F 79.7 °F 30.04 in NNW 2.0 mph 2.0 mph 73 % 0.00 in
09:24 88.9 °F 79.2 °F 30.04 in Calm   3.0 mph 73 % 0.00 in
09:29 88.5 °F 79.2 °F 30.04 in Calm   3.0 mph 74 % 0.00 in
09:34 88.5 °F 79.5 °F 30.04 in Calm   3.0 mph 75 % 0.00 in
09:39 88.7 °F 79.3 °F 30.04 in Calm   1.0 mph 74 % 0.00 in
09:44 89.1 °F 80.1 °F 30.03 in Calm   2.0 mph 75 % 0.00 in
09:49 89.6 °F 79.7 °F 30.03 in ENE 1.0 mph 2.0 mph 73 % 0.00 in
09:54 89.8 °F 78.6 °F 30.04 in Calm   2.0 mph 70 % 0.00 in
09:59 89.6 °F 79.3 °F 30.04 in NW 2.0 mph 3.0 mph 72 % 0.00 in
10:04 89.2 °F 78.1 °F 30.04 in East 1.0 mph 3.0 mph 70 % 0.00 in
10:09 88.9 °F 77.9 °F 30.04 in Calm   4.0 mph 70 % 0.00 in
10:14 88.5 °F 78.3 °F 30.04 in Calm   4.0 mph 72 % 0.00 in
10:19 88.5 °F 78.3 °F 30.04 in Calm   4.0 mph 72 % 0.00 in
10:24 88.3 °F 78.6 °F 30.04 in Calm   2.0 mph 73 % 0.00 in
10:29 88.3 °F 79.0 °F 30.04 in Calm   1.0 mph 74 % 0.00 in
10:34 88.2 °F 78.8 °F 30.05 in ESE 1.0 mph 1.0 mph 74 % 0.00 in
10:39 88.3 °F 78.6 °F 30.04 in NNW 2.0 mph 3.0 mph 73 % 0.00 in
10:44 88.2 °F 78.4 °F 30.05 in East 2.0 mph 3.0 mph 73 % 0.00 in
10:49 87.6 °F 78.3 °F 30.04 in ENE 2.0 mph 3.0 mph 74 % 0.00 in
10:54 87.3 °F 78.4 °F 30.05 in Calm   4.0 mph 75 % 0.00 in
10:59 87.1 °F 78.3 °F 30.05 in SSE 1.0 mph 4.0 mph 75 % 0.00 in
11:04 87.1 °F 78.3 °F 30.04 in SSW 2.0 mph 4.0 mph 75 % 0.00 in
11:09 86.9 °F 78.4 °F 30.04 in East 2.0 mph 3.0 mph 76 % 0.00 in
11:15 86.5 °F 78.1 °F 30.04 in SSE 4.0 mph 4.0 mph 76 % 0.00 in
11:19 86.5 °F 78.1 °F 30.04 in SE 2.0 mph 4.0 mph 76 % 0.00 in
11:25 86.2 °F 79.0 °F 30.04 in NNE 1.0 mph 4.0 mph 79 % 0.00 in
11:30 86.4 °F 79.9 °F 30.04 in Calm   4.0 mph 81 % 0.00 in
11:35 86.7 °F 79.0 °F 30.04 in ESE 4.0 mph 5.0 mph 78 % 0.00 in
11:40 87.3 °F 77.5 °F 30.04 in ESE 3.0 mph 6.0 mph 73 % 0.00 in
11:45 88.0 °F 78.6 °F 30.04 in SE 4.0 mph 6.0 mph 74 % 0.00 in
11:50 88.9 °F 79.5 °F 30.04 in SE 5.0 mph 6.0 mph 74 % 0.00 in
11:55 88.9 °F 79.2 °F 30.04 in ESE 4.0 mph 8.0 mph 73 % 0.00 in
12:00 88.9 °F 80.2 °F 30.04 in East 3.0 mph 8.0 mph 76 % 0.00 in
12:05 88.9 °F 79.2 °F 30.04 in SSE 4.0 mph 8.0 mph 73 % 0.00 in
12:10 89.4 °F 79.7 °F 30.03 in SSE 5.0 mph 8.0 mph 73 % 0.00 in
12:15 89.4 °F 78.8 °F 30.03 in SE 3.0 mph 7.0 mph 71 % 0.00 in
12:20 89.2 °F 78.6 °F 30.04 in SE 2.0 mph 7.0 mph 71 % 0.00 in
12:25 88.5 °F 77.9 °F 30.04 in ESE 2.0 mph 6.0 mph 71 % 0.00 in
12:30 88.2 °F 77.9 °F 30.03 in SSE 8.0 mph 8.0 mph 72 % 0.00 in
12:35 87.4 °F 78.1 °F 30.03 in SE 4.0 mph 8.0 mph 74 % 0.00 in
12:40 86.7 °F 78.3 °F 30.04 in SE 9.0 mph 12.0 mph 76 % 0.00 in
12:45 85.5 °F 77.7 °F 30.04 in SE 8.0 mph 12.0 mph 78 % 0.00 in
12:50 84.7 °F 77.9 °F 30.04 in SE 3.0 mph 12.0 mph 80 % 0.00 in
12:55 84.6 °F 77.0 °F 30.04 in SSE 9.0 mph 12.0 mph 78 % 0.00 in
13:00 84.6 °F 77.0 °F 30.04 in SE 8.0 mph 14.0 mph 78 % 0.00 in
13:05 83.8 °F 77.4 °F 30.04 in ESE 3.0 mph 14.0 mph 81 % 0.00 in
13:10 83.8 °F 77.7 °F 30.04 in ESE 6.0 mph 14.0 mph 82 % 0.00 in
13:15 84.6 °F 78.1 °F 30.04 in SE 6.0 mph 13.0 mph 81 % 0.00 in
13:20 85.3 °F 79.2 °F 30.03 in South 4.0 mph 11.0 mph 82 % 0.00 in
13:25 85.6 °F 79.2 °F 30.03 in SSE 6.0 mph 11.0 mph 81 % 0.00 in
13:30 86.4 °F 79.5 °F 30.03 in SSE 6.0 mph 10.0 mph 80 % 0.00 in
13:35 86.2 °F 77.7 °F 30.03 in SE 6.0 mph 10.0 mph 76 % 0.00 in
13:40 86.2 °F 78.1 °F 30.03 in South 2.0 mph 10.0 mph 77 % 0.00 in
13:45 86.4 °F 78.6 °F 30.03 in South 3.0 mph 10.0 mph 78 % 0.00 in
13:50 86.4 °F 79.0 °F 30.03 in South 2.0 mph 7.0 mph 79 % 0.00 in
13:55 86.2 °F 79.0 °F 30.03 in SSW 3.0 mph 7.0 mph 79 % 0.00 in
13:57 86.2 °F 79.3 °F 30.03 in SSE 1.0 mph 7.0 mph 80 % 0.00 in
14:02 86.4 °F 79.0 °F 30.03 in SSE 3.0 mph 7.0 mph 79 % 0.00 in
14:07 86.2 °F 79.0 °F 30.02 in SSE 3.0 mph 7.0 mph 79 % 0.00 in
14:12 85.8 °F 78.6 °F 30.02 in SSE 3.0 mph 6.0 mph 79 % 0.00 in
14:17 85.8 °F 79.0 °F 30.02 in SSW 7.0 mph 7.0 mph 80 % 0.00 in
14:22 86.0 °F 78.8 °F 30.01 in ESE 4.0 mph 8.0 mph 79 % 0.00 in
14:27 86.2 °F 79.0 °F 30.01 in Calm   8.0 mph 79 % 0.00 in
14:32 86.2 °F 79.0 °F 30.01 in SE 2.0 mph 8.0 mph 79 % 0.00 in
14:37 86.5 °F 79.2 °F 30.01 in Calm   5.0 mph 79 % 0.00 in
14:42 86.7 °F 79.3 °F 30.00 in SSE 2.0 mph 4.0 mph 79 % 0.00 in
14:47 86.9 °F 79.5 °F 30.00 in SE 3.0 mph 4.0 mph 79 % 0.00 in
14:52 87.1 °F 80.2 °F 30.00 in Calm   4.0 mph 80 % 0.00 in
14:57 87.1 °F 79.0 °F 30.00 in East 1.0 mph 4.0 mph 77 % 0.00 in
15:02 87.4 °F 79.7 °F 30.00 in SSW 3.0 mph 4.0 mph 78 % 0.00 in
15:07 87.6 °F 79.9 °F 30.00 in SSW 2.0 mph 4.0 mph 78 % 0.00 in
15:12 87.8 °F 79.7 °F 30.00 in SSE 1.0 mph 4.0 mph 77 % 0.00 in
15:17 88.2 °F 80.4 °F 30.00 in SSE 2.0 mph 4.0 mph 78 % 0.00 in
15:22 88.3 °F 79.0 °F 30.00 in SE 1.0 mph 4.0 mph 74 % 0.00 in
15:27 88.5 °F 79.2 °F 30.00 in SSW 1.0 mph 4.0 mph 74 % 0.00 in
15:32 88.5 °F 78.8 °F 30.00 in South 1.0 mph 4.0 mph 73 % 0.00 in
15:37 88.7 °F 78.4 °F 29.99 in SSE 3.0 mph 4.0 mph 72 % 0.00 in
15:42 88.9 °F 78.6 °F 29.99 in SE 1.0 mph 5.0 mph 72 % 0.00 in
15:47 88.9 °F 78.6 °F 29.99 in South 2.0 mph 5.0 mph 72 % 0.00 in
15:52 89.1 °F 78.4 °F 29.99 in ESE 3.0 mph 5.0 mph 71 % 0.00 in
15:57 89.2 °F 78.1 °F 29.99 in SE 3.0 mph 6.0 mph 70 % 0.00 in
16:02 89.2 °F 77.7 °F 29.98 in South 1.0 mph 6.0 mph 69 % 0.00 in
16:07 89.8 °F 79.2 °F 29.98 in Calm   6.0 mph 71 % 0.00 in
16:12 90.1 °F 79.5 °F 29.98 in SSE 1.0 mph 4.0 mph 71 % 0.00 in
16:17 90.1 °F 78.6 °F 29.98 in SSE 3.0 mph 4.0 mph 69 % 0.00 in
16:22 90.0 °F 78.8 °F 29.99 in Calm   6.0 mph 70 % 0.00 in
16:27 90.3 °F 78.8 °F 29.98 in Calm   6.0 mph 69 % 0.00 in
16:32 90.5 °F 79.3 °F 29.98 in SSW 2.0 mph 6.0 mph 70 % 0.00 in
16:37 90.7 °F 79.2 °F 29.98 in ENE 1.0 mph 3.0 mph 69 % 0.00 in
16:42 90.5 °F 76.6 °F 29.98 in SE 3.0 mph 3.0 mph 64 % 0.00 in
16:47 90.5 °F 76.1 °F 29.98 in East 2.0 mph 5.0 mph 63 % 0.00 in
16:48 90.5 °F 76.6 °F 29.98 in SE 1.0 mph 5.0 mph 64 % 0.00 in
16:53 90.5 °F 77.2 °F 29.98 in SE 4.0 mph 7.0 mph 65 % 0.00 in
16:58 90.3 °F 77.4 °F 29.98 in SE 3.0 mph 7.0 mph 66 % 0.00 in
17:03 90.3 °F 77.0 °F 29.98 in ESE 3.0 mph 7.0 mph 65 % 0.00 in
17:08 90.1 °F 76.8 °F 29.98 in SSE 4.0 mph 6.0 mph 65 % 0.00 in
17:13 90.3 °F 77.9 °F 29.98 in East 3.0 mph 8.0 mph 67 % 0.00 in
17:14 90.5 °F 78.1 °F 29.98 in South 2.0 mph 8.0 mph 67 % 0.00 in
17:19 90.9 °F 77.9 °F 29.97 in ENE 2.0 mph 8.0 mph 66 % 0.00 in
17:24 91.0 °F 78.6 °F 29.97 in Calm   9.0 mph 67 % 0.00 in
17:29 91.2 °F 78.8 °F 29.97 in ENE 3.0 mph 9.0 mph 67 % 0.00 in
17:34 91.0 °F 78.1 °F 29.97 in South 6.0 mph 9.0 mph 66 % 0.00 in
17:39 91.0 °F 78.6 °F 29.97 in South 4.0 mph 7.0 mph 67 % 0.00 in
17:44 91.0 °F 78.6 °F 29.97 in ESE 5.0 mph 8.0 mph 67 % 0.00 in
17:49 91.0 °F 78.6 °F 29.97 in SW 7.0 mph 8.0 mph 67 % 0.00 in
17:54 91.0 °F 78.6 °F 29.97 in SE 5.0 mph 9.0 mph 67 % 0.00 in
17:59 90.9 °F 78.8 °F 29.97 in SSW 4.0 mph 9.0 mph 68 % 0.00 in
18:00 91.0 °F 79.5 °F 29.97 in ESE 7.0 mph 9.0 mph 69 % 0.00 in
18:05 91.0 °F 79.5 °F 29.97 in SE 4.0 mph 10.0 mph 69 % 0.00 in
18:10 91.0 °F 79.5 °F 29.97 in SSW 3.0 mph 10.0 mph 69 % 0.00 in
18:16 90.3 °F 79.2 °F 29.97 in SE 4.0 mph 11.0 mph 70 % 0.00 in
18:21 89.6 °F 79.0 °F 29.98 in SE 4.0 mph 11.0 mph 71 % 0.00 in
18:26 89.2 °F 79.0 °F 29.98 in SE 7.0 mph 11.0 mph 72 % 0.00 in
18:31 88.9 °F 79.2 °F 29.97 in SSE 7.0 mph 11.0 mph 73 % 0.00 in
18:36 88.3 °F 79.0 °F 29.98 in SE 5.0 mph 11.0 mph 74 % 0.00 in
18:41 88.2 °F 78.8 °F 29.97 in East 6.0 mph 11.0 mph 74 % 0.00 in
18:46 88.2 °F 79.2 °F 29.97 in South 5.0 mph 11.0 mph 75 % 0.00 in
18:51 88.2 °F 78.8 °F 29.98 in SE 7.0 mph 10.0 mph 74 % 0.00 in
18:56 88.3 °F 79.0 °F 29.98 in ESE 3.0 mph 10.0 mph 74 % 0.00 in
19:01 88.3 °F 79.0 °F 29.98 in SE 11.0 mph 11.0 mph 74 % 0.00 in
19:06 88.2 °F 78.8 °F 29.98 in SE 4.0 mph 11.0 mph 74 % 0.00 in
19:11 88.3 °F 79.0 °F 29.98 in ESE 4.0 mph 11.0 mph 74 % 0.00 in
19:16 88.3 °F 79.0 °F 29.98 in SSE 7.0 mph 11.0 mph 74 % 0.00 in
19:21 88.2 °F 78.8 °F 29.98 in SE 3.0 mph 9.0 mph 74 % 0.00 in
19:26 88.0 °F 78.6 °F 29.99 in ESE 5.0 mph 9.0 mph 74 % 0.00 in
19:31 87.6 °F 78.6 °F 29.99 in ESE 3.0 mph 9.0 mph 75 % 0.00 in
19:36 87.6 °F 78.6 °F 29.99 in ESE 6.0 mph 9.0 mph 75 % 0.00 in
19:41 87.4 °F 78.6 °F 29.99 in SE 2.0 mph 9.0 mph 75 % 0.00 in
19:46 87.4 °F 79.0 °F 29.99 in SE 4.0 mph 8.0 mph 76 % 0.00 in
19:51 87.3 °F 78.4 °F 29.99 in East 3.0 mph 8.0 mph 75 % 0.00 in
19:56 87.1 °F 78.3 °F 29.99 in East 2.0 mph 8.0 mph 75 % 0.00 in
20:01 86.9 °F 78.4 °F 29.99 in ESE 2.0 mph 6.0 mph 76 % 0.00 in
20:06 86.7 °F 78.3 °F 29.99 in SE 2.0 mph 6.0 mph 76 % 0.00 in
20:11 86.5 °F 78.1 °F 29.99 in Calm   5.0 mph 76 % 0.00 in
20:16 86.5 °F 78.1 °F 29.99 in Calm   5.0 mph 76 % 0.00 in
20:21 86.4 °F 77.9 °F 29.99 in East 3.0 mph 5.0 mph 76 % 0.00 in
20:22 86.4 °F 77.9 °F 29.99 in ESE 2.0 mph 5.0 mph 76 % 0.00 in
20:27 86.2 °F 77.7 °F 29.99 in SE 1.0 mph 4.0 mph 76 % 0.00 in
20:32 85.8 °F 77.7 °F 29.99 in ESE 2.0 mph 5.0 mph 77 % 0.00 in
20:37 85.6 °F 77.5 °F 29.99 in SSE 2.0 mph 5.0 mph 77 % 0.00 in
20:42 85.6 °F 77.5 °F 30.00 in ESE 1.0 mph 5.0 mph 77 % 0.00 in
20:47 85.5 °F 77.4 °F 30.00 in South 2.0 mph 4.0 mph 77 % 0.00 in
20:48 85.5 °F 77.4 °F 30.00 in Calm   4.0 mph 77 % 0.00 in
20:53 85.3 °F 77.2 °F 30.00 in ESE 1.0 mph 4.0 mph 77 % 0.00 in
20:58 85.1 °F 77.5 °F 30.00 in ESE 4.0 mph 4.0 mph 78 % 0.00 in
21:03 84.9 °F 77.4 °F 30.00 in ESE 2.0 mph 5.0 mph 78 % 0.00 in
21:08 84.9 °F 77.4 °F 30.00 in SE 1.0 mph 5.0 mph 78 % 0.00 in
21:13 84.9 °F 77.4 °F 30.01 in East 4.0 mph 5.0 mph 78 % 0.00 in
21:18 84.7 °F 77.2 °F 30.00 in SSE 3.0 mph 4.0 mph 78 % 0.00 in
21:19 84.7 °F 77.2 °F 30.00 in SE 1.0 mph 4.0 mph 78 % 0.00 in
21:24 84.7 °F 77.2 °F 30.00 in SSE 1.0 mph 4.0 mph 78 % 0.00 in
21:29 84.6 °F 77.0 °F 30.01 in ESE 1.0 mph 4.0 mph 78 % 0.00 in
21:34 84.4 °F 77.2 °F 30.01 in Calm   4.0 mph 79 % 0.00 in
21:39 84.2 °F 77.0 °F 30.01 in ESE 2.0 mph 4.0 mph 79 % 0.00 in
21:44 84.0 °F 76.8 °F 30.02 in ESE 3.0 mph 4.0 mph 79 % 0.00 in
21:49 83.8 °F 77.0 °F 30.02 in SE 1.0 mph 4.0 mph 80 % 0.00 in
21:54 83.8 °F 77.0 °F 30.02 in ESE 2.0 mph 4.0 mph 80 % 0.00 in
21:59 83.7 °F 76.8 °F 30.02 in SE 2.0 mph 3.0 mph 80 % 0.00 in
22:04 83.7 °F 76.8 °F 30.02 in SSW 1.0 mph 4.0 mph 80 % 0.00 in
22:09 83.5 °F 76.6 °F 30.02 in South 2.0 mph 4.0 mph 80 % 0.00 in
22:14 83.1 °F 76.6 °F 30.03 in South 1.0 mph 4.0 mph 81 % 0.00 in
22:19 82.9 °F 76.5 °F 30.03 in South 1.0 mph 4.0 mph 81 % 0.00 in
22:24 82.8 °F 76.3 °F 30.03 in Calm   4.0 mph 81 % 0.00 in
22:29 82.8 °F 76.6 °F 30.03 in SSW 1.0 mph 4.0 mph 82 % 0.00 in
22:34 82.6 °F 76.5 °F 30.03 in Calm   3.0 mph 82 % 0.00 in
22:39 82.6 °F 76.5 °F 30.03 in SSW 2.0 mph 3.0 mph 82 % 0.00 in
22:44 82.2 °F 76.1 °F 30.03 in Calm   3.0 mph 82 % 0.00 in
22:49 82.0 °F 76.3 °F 30.03 in Calm   3.0 mph 83 % 0.00 in
22:54 82.0 °F 76.3 °F 30.03 in SSW 3.0 mph 3.0 mph 83 % 0.00 in
22:59 82.0 °F 76.3 °F 30.03 in South 1.0 mph 3.0 mph 83 % 0.00 in
23:04 81.9 °F 76.1 °F 30.03 in Calm   3.0 mph 83 % 0.00 in
23:09 81.7 °F 75.9 °F 30.03 in Calm   3.0 mph 83 % 0.00 in
23:14 81.7 °F 75.9 °F 30.03 in Calm   3.0 mph 83 % 0.00 in
23:19 81.5 °F 76.3 °F 30.04 in Calm   2.0 mph 84 % 0.00 in
23:24 81.1 °F 75.9 °F 30.04 in Calm   1.0 mph 84 % 0.00 in
23:29 81.1 °F 75.9 °F 30.04 in Calm   1.0 mph 84 % 0.00 in
23:34 81.0 °F 76.1 °F 30.04 in Calm     85 % 0.00 in
23:40 80.8 °F 75.9 °F 30.04 in Calm   1.0 mph 85 % 0.00 in
23:45 80.6 °F 76.1 °F 30.04 in Calm   1.0 mph 86 % 0.00 in
23:50 80.2 °F 75.7 °F 30.04 in Calm   1.0 mph 86 % 0.00 in
23:55 80.1 °F 75.9 °F 30.04 in Calm     87 % 0.00 in
Spring, Texas: Villages of Bridgestone
Compliments of Weather Underground - 3 mb

Script developed by  Jim McMurry - jmcmurry@mwt.net Adapted for the template by  Wim van der Kuil - Leuven-Template.eu

You find our weather info also at:

UK Metoffice

WeatherCloud

Weather Underground

Mid-South Weather Network

AWEKAS

Citizen Weather Observer Program (CWOP)

HAMweather, WeatherForYou, PWS Weather

Equipment we use:

Weather-station
Davis Vantage Vue

Weather-program
Meteohub

Weather-server
Debian 7.9 x86 (Guest)

Provider
DreamHost

Davis Vantage Vue

Meteohub

Debian 7.9 x86 (Guest)

DreamHost